sensor_id;sensor_type;location;lat;lon;timestamp;temperature;humidity
72114;SHT31;59989;46.220;19.888;2023-08-06T00:03:01;18.34;99.30
72114;SHT31;59989;46.220;19.888;2023-08-06T00:06:05;18.37;99.32
72114;SHT31;59989;46.220;19.888;2023-08-06T00:09:08;18.36;99.35
72114;SHT31;59989;46.220;19.888;2023-08-06T00:12:10;18.38;99.36
72114;SHT31;59989;46.220;19.888;2023-08-06T00:15:13;18.32;99.19
72114;SHT31;59989;46.220;19.888;2023-08-06T00:18:15;18.30;99.19
72114;SHT31;59989;46.220;19.888;2023-08-06T00:21:18;18.29;99.25
72114;SHT31;59989;46.220;19.888;2023-08-06T00:24:20;18.29;99.21
72114;SHT31;59989;46.220;19.888;2023-08-06T00:27:23;18.26;99.42
72114;SHT31;59989;46.220;19.888;2023-08-06T00:30:26;18.22;99.29
72114;SHT31;59989;46.220;19.888;2023-08-06T00:33:29;18.23;99.40
72114;SHT31;59989;46.220;19.888;2023-08-06T00:36:31;18.20;99.45
72114;SHT31;59989;46.220;19.888;2023-08-06T00:39:35;18.05;98.68
72114;SHT31;59989;46.220;19.888;2023-08-06T00:42:38;18.07;99.18
72114;SHT31;59989;46.220;19.888;2023-08-06T00:45:40;18.05;99.18
72114;SHT31;59989;46.220;19.888;2023-08-06T00:48:43;17.99;99.06
72114;SHT31;59989;46.220;19.888;2023-08-06T00:51:46;18.02;99.11
72114;SHT31;59989;46.220;19.888;2023-08-06T00:54:49;17.99;99.00
72114;SHT31;59989;46.220;19.888;2023-08-06T00:57:51;17.99;98.96
72114;SHT31;59989;46.220;19.888;2023-08-06T01:00:55;17.97;99.06
72114;SHT31;59989;46.220;19.888;2023-08-06T01:03:58;17.99;99.14
72114;SHT31;59989;46.220;19.888;2023-08-06T01:07:25;17.92;98.98
72114;SHT31;59989;46.220;19.888;2023-08-06T01:14:37;17.89;99.01
72114;SHT31;59989;46.220;19.888;2023-08-06T01:17:46;17.89;98.92
72114;SHT31;59989;46.220;19.888;2023-08-06T01:20:48;17.88;98.75
72114;SHT31;59989;46.220;19.888;2023-08-06T01:23:52;17.86;98.82
72114;SHT31;59989;46.220;19.888;2023-08-06T01:27:17;17.86;98.90
72114;SHT31;59989;46.220;19.888;2023-08-06T01:30:31;17.89;99.04
72114;SHT31;59989;46.220;19.888;2023-08-06T01:33:42;17.88;99.10
72114;SHT31;59989;46.220;19.888;2023-08-06T01:36:46;17.83;99.08
72114;SHT31;59989;46.220;19.888;2023-08-06T01:39:48;17.85;99.18
72114;SHT31;59989;46.220;19.888;2023-08-06T01:42:51;17.88;99.24
72114;SHT31;59989;46.220;19.888;2023-08-06T01:45:54;17.86;99.20
72114;SHT31;59989;46.220;19.888;2023-08-06T01:48:56;17.86;99.20
72114;SHT31;59989;46.220;19.888;2023-08-06T01:51:59;17.88;99.24
72114;SHT31;59989;46.220;19.888;2023-08-06T01:55:03;17.89;99.32
72114;SHT31;59989;46.220;19.888;2023-08-06T01:58:06;17.92;99.38
72114;SHT31;59989;46.220;19.888;2023-08-06T02:01:08;17.92;99.35
72114;SHT31;59989;46.220;19.888;2023-08-06T02:04:11;17.93;99.50
72114;SHT31;59989;46.220;19.888;2023-08-06T02:07:14;17.89;99.34
72114;SHT31;59989;46.220;19.888;2023-08-06T02:10:16;17.93;99.38
72114;SHT31;59989;46.220;19.888;2023-08-06T02:13:19;17.95;99.34
72114;SHT31;59989;46.220;19.888;2023-08-06T02:16:21;17.90;99.28
72114;SHT31;59989;46.220;19.888;2023-08-06T02:19:24;17.88;99.19
72114;SHT31;59989;46.220;19.888;2023-08-06T02:22:26;17.92;99.22
72114;SHT31;59989;46.220;19.888;2023-08-06T02:25:29;17.86;99.10
72114;SHT31;59989;46.220;19.888;2023-08-06T02:28:32;17.86;99.36
72114;SHT31;59989;46.220;19.888;2023-08-06T02:31:34;17.86;99.12
72114;SHT31;59989;46.220;19.888;2023-08-06T02:34:37;17.85;99.27
72114;SHT31;59989;46.220;19.888;2023-08-06T02:37:39;17.85;99.24
72114;SHT31;59989;46.220;19.888;2023-08-06T02:40:46;17.86;99.39
72114;SHT31;59989;46.220;19.888;2023-08-06T02:43:49;17.83;99.16
72114;SHT31;59989;46.220;19.888;2023-08-06T02:46:51;17.81;99.34
72114;SHT31;59989;46.220;19.888;2023-08-06T02:49:54;17.82;99.39
72114;SHT31;59989;46.220;19.888;2023-08-06T02:52:56;17.81;99.36
72114;SHT31;59989;46.220;19.888;2023-08-06T02:55:59;17.78;99.40
72114;SHT31;59989;46.220;19.888;2023-08-06T02:59:09;17.81;99.29
72114;SHT31;59989;46.220;19.888;2023-08-06T03:02:35;17.81;99.15
72114;SHT31;59989;46.220;19.888;2023-08-06T03:05:53;17.78;99.14
72114;SHT31;59989;46.220;19.888;2023-08-06T03:09:06;17.78;99.31
72114;SHT31;59989;46.220;19.888;2023-08-06T03:12:10;17.78;99.26
72114;SHT31;59989;46.220;19.888;2023-08-06T03:15:13;17.88;99.62
72114;SHT31;59989;46.220;19.888;2023-08-06T03:18:18;17.83;99.20
72114;SHT31;59989;46.220;19.888;2023-08-06T03:21:20;17.83;99.38
72114;SHT31;59989;46.220;19.888;2023-08-06T03:24:23;17.85;99.41
72114;SHT31;59989;46.220;19.888;2023-08-06T03:27:26;17.85;99.53
72114;SHT31;59989;46.220;19.888;2023-08-06T03:30:28;17.82;99.36
72114;SHT31;59989;46.220;19.888;2023-08-06T03:33:32;17.81;99.55
72114;SHT31;59989;46.220;19.888;2023-08-06T03:36:36;17.79;99.49
72114;SHT31;59989;46.220;19.888;2023-08-06T03:39:41;17.81;99.47
72114;SHT31;59989;46.220;19.888;2023-08-06T03:42:44;17.85;99.57
72114;SHT31;59989;46.220;19.888;2023-08-06T03:45:46;17.85;99.38
72114;SHT31;59989;46.220;19.888;2023-08-06T03:48:49;17.86;99.55
72114;SHT31;59989;46.220;19.888;2023-08-06T03:51:51;17.83;99.54
72114;SHT31;59989;46.220;19.888;2023-08-06T03:54:54;17.90;99.43
72114;SHT31;59989;46.220;19.888;2023-08-06T03:57:57;17.86;99.48
72114;SHT31;59989;46.220;19.888;2023-08-06T04:01:00;17.89;99.47
72114;SHT31;59989;46.220;19.888;2023-08-06T04:04:08;17.88;99.48
72114;SHT31;59989;46.220;19.888;2023-08-06T04:07:11;17.89;99.38
72114;SHT31;59989;46.220;19.888;2023-08-06T04:10:13;17.88;99.30
72114;SHT31;59989;46.220;19.888;2023-08-06T04:13:16;17.90;99.34
72114;SHT31;59989;46.220;19.888;2023-08-06T04:16:18;17.93;99.29
72114;SHT31;59989;46.220;19.888;2023-08-06T04:19:22;17.96;99.29
72114;SHT31;59989;46.220;19.888;2023-08-06T04:22:24;18.00;99.34
72114;SHT31;59989;46.220;19.888;2023-08-06T04:25:27;17.97;99.26
72114;SHT31;59989;46.220;19.888;2023-08-06T04:28:30;17.99;99.15
72114;SHT31;59989;46.220;19.888;2023-08-06T04:31:32;18.02;99.36
72114;SHT31;59989;46.220;19.888;2023-08-06T04:34:36;18.05;99.32
72114;SHT31;59989;46.220;19.888;2023-08-06T04:37:39;18.05;99.43
72114;SHT31;59989;46.220;19.888;2023-08-06T04:40:42;17.99;99.26
72114;SHT31;59989;46.220;19.888;2023-08-06T04:43:44;18.00;99.48
72114;SHT31;59989;46.220;19.888;2023-08-06T04:46:47;18.00;99.36
72114;SHT31;59989;46.220;19.888;2023-08-06T04:49:49;18.05;99.51
72114;SHT31;59989;46.220;19.888;2023-08-06T04:52:52;18.10;99.50
72114;SHT31;59989;46.220;19.888;2023-08-06T04:55:54;18.12;99.60
72114;SHT31;59989;46.220;19.888;2023-08-06T04:58:57;18.16;99.69
72114;SHT31;59989;46.220;19.888;2023-08-06T05:01:59;18.18;99.43
72114;SHT31;59989;46.220;19.888;2023-08-06T05:05:02;18.22;99.50
72114;SHT31;59989;46.220;19.888;2023-08-06T05:08:05;18.29;99.40
72114;SHT31;59989;46.220;19.888;2023-08-06T05:11:07;18.22;99.30
72114;SHT31;59989;46.220;19.888;2023-08-06T05:14:10;18.37;99.43
72114;SHT31;59989;46.220;19.888;2023-08-06T05:17:12;18.34;99.20
72114;SHT31;59989;46.220;19.888;2023-08-06T05:20:15;18.41;99.17
72114;SHT31;59989;46.220;19.888;2023-08-06T05:23:19;18.48;99.06
72114;SHT31;59989;46.220;19.888;2023-08-06T05:26:21;18.41;98.74
72114;SHT31;59989;46.220;19.888;2023-08-06T05:29:24;18.44;99.09
72114;SHT31;59989;46.220;19.888;2023-08-06T05:32:26;18.45;98.87
72114;SHT31;59989;46.220;19.888;2023-08-06T05:35:29;18.47;98.72
72114;SHT31;59989;46.220;19.888;2023-08-06T05:38:31;18.43;98.79
72114;SHT31;59989;46.220;19.888;2023-08-06T05:41:34;18.44;98.98
72114;SHT31;59989;46.220;19.888;2023-08-06T05:44:36;18.51;98.63
72114;SHT31;59989;46.220;19.888;2023-08-06T05:47:39;18.47;98.12
72114;SHT31;59989;46.220;19.888;2023-08-06T05:50:41;18.51;97.96
72114;SHT31;59989;46.220;19.888;2023-08-06T05:53:44;18.61;98.15
72114;SHT31;59989;46.220;19.888;2023-08-06T05:56:48;18.60;97.77
72114;SHT31;59989;46.220;19.888;2023-08-06T05:59:50;18.69;97.31
72114;SHT31;59989;46.220;19.888;2023-08-06T06:02:52;18.81;97.02
72114;SHT31;59989;46.220;19.888;2023-08-06T06:05:55;18.82;95.91
72114;SHT31;59989;46.220;19.888;2023-08-06T06:08:58;19.09;96.66
72114;SHT31;59989;46.220;19.888;2023-08-06T06:12:00;19.09;96.09
72114;SHT31;59989;46.220;19.888;2023-08-06T06:15:03;19.13;96.22
72114;SHT31;59989;46.220;19.888;2023-08-06T06:18:06;19.15;96.29
72114;SHT31;59989;46.220;19.888;2023-08-06T06:21:09;19.19;96.22
72114;SHT31;59989;46.220;19.888;2023-08-06T06:24:12;18.88;96.09
72114;SHT31;59989;46.220;19.888;2023-08-06T06:27:15;18.88;96.29
72114;SHT31;59989;46.220;19.888;2023-08-06T06:30:17;18.89;96.28
72114;SHT31;59989;46.220;19.888;2023-08-06T06:33:20;18.79;95.57
72114;SHT31;59989;46.220;19.888;2023-08-06T06:36:22;18.89;96.09
72114;SHT31;59989;46.220;19.888;2023-08-06T06:39:25;18.78;95.44
72114;SHT31;59989;46.220;19.888;2023-08-06T06:42:28;18.76;95.80
72114;SHT31;59989;46.220;19.888;2023-08-06T06:45:35;18.64;95.92
72114;SHT31;59989;46.220;19.888;2023-08-06T06:48:38;18.55;95.84
72114;SHT31;59989;46.220;19.888;2023-08-06T06:51:40;18.65;96.57
72114;SHT31;59989;46.220;19.888;2023-08-06T06:54:43;18.44;94.90
72114;SHT31;59989;46.220;19.888;2023-08-06T06:57:45;18.47;95.97
72114;SHT31;59989;46.220;19.888;2023-08-06T07:00:48;18.51;96.23
72114;SHT31;59989;46.220;19.888;2023-08-06T07:03:50;18.48;96.20
72114;SHT31;59989;46.220;19.888;2023-08-06T07:06:53;18.43;96.07
72114;SHT31;59989;46.220;19.888;2023-08-06T07:09:56;18.43;96.18
72114;SHT31;59989;46.220;19.888;2023-08-06T07:12:59;18.45;95.25
72114;SHT31;59989;46.220;19.888;2023-08-06T07:16:01;18.53;95.92
72114;SHT31;59989;46.220;19.888;2023-08-06T07:19:04;18.48;95.85
72114;SHT31;59989;46.220;19.888;2023-08-06T07:22:07;18.58;95.25
72114;SHT31;59989;46.220;19.888;2023-08-06T07:25:10;18.74;94.63
72114;SHT31;59989;46.220;19.888;2023-08-06T07:28:13;19.15;94.43
72114;SHT31;59989;46.220;19.888;2023-08-06T07:31:16;19.27;93.21
72114;SHT31;59989;46.220;19.888;2023-08-06T07:34:19;19.75;91.77
72114;SHT31;59989;46.220;19.888;2023-08-06T07:37:21;20.38;90.90
72114;SHT31;59989;46.220;19.888;2023-08-06T07:40:24;20.60;89.52
72114;SHT31;59989;46.220;19.888;2023-08-06T07:43:26;20.29;88.06
72114;SHT31;59989;46.220;19.888;2023-08-06T07:46:29;20.43;88.75
72114;SHT31;59989;46.220;19.888;2023-08-06T07:49:32;20.63;88.40
72114;SHT31;59989;46.220;19.888;2023-08-06T07:52:35;20.67;87.39
72114;SHT31;59989;46.220;19.888;2023-08-06T07:55:38;20.98;87.38
72114;SHT31;59989;46.220;19.888;2023-08-06T07:58:40;20.96;86.61
72114;SHT31;59989;46.220;19.888;2023-08-06T08:01:42;21.07;84.08
72114;SHT31;59989;46.220;19.888;2023-08-06T08:04:45;21.39;85.44
72114;SHT31;59989;46.220;19.888;2023-08-06T08:07:49;21.62;84.35
72114;SHT31;59989;46.220;19.888;2023-08-06T08:10:52;22.09;83.42
72114;SHT31;59989;46.220;19.888;2023-08-06T08:13:54;21.81;82.51
72114;SHT31;59989;46.220;19.888;2023-08-06T08:16:57;21.62;82.43
72114;SHT31;59989;46.220;19.888;2023-08-06T08:19:59;21.46;82.18
72114;SHT31;59989;46.220;19.888;2023-08-06T08:23:02;21.37;83.31
72114;SHT31;59989;46.220;19.888;2023-08-06T08:26:04;21.41;82.59
72114;SHT31;59989;46.220;19.888;2023-08-06T08:29:07;21.76;81.20
72114;SHT31;59989;46.220;19.888;2023-08-06T08:32:09;21.76;79.35
72114;SHT31;59989;46.220;19.888;2023-08-06T08:35:12;21.73;80.50
72114;SHT31;59989;46.220;19.888;2023-08-06T08:38:15;21.24;81.77
72114;SHT31;59989;46.220;19.888;2023-08-06T08:41:17;21.07;82.88
72114;SHT31;59989;46.220;19.888;2023-08-06T08:44:20;21.10;81.02
72114;SHT31;59989;46.220;19.888;2023-08-06T08:47:24;21.32;82.33
72114;SHT31;59989;46.220;19.888;2023-08-06T08:50:26;22.02;81.88
72114;SHT31;59989;46.220;19.888;2023-08-06T08:53:30;22.16;78.76
72114;SHT31;59989;46.220;19.888;2023-08-06T08:56:32;21.82;79.45
72114;SHT31;59989;46.220;19.888;2023-08-06T08:59:35;21.73;79.82
72114;SHT31;59989;46.220;19.888;2023-08-06T09:02:39;21.79;78.60
72114;SHT31;59989;46.220;19.888;2023-08-06T09:05:44;22.52;77.98
72114;SHT31;59989;46.220;19.888;2023-08-06T09:08:51;22.61;77.08
72114;SHT31;59989;46.220;19.888;2023-08-06T09:12:00;21.83;77.20
72114;SHT31;59989;46.220;19.888;2023-08-06T09:15:04;21.65;78.53
72114;SHT31;59989;46.220;19.888;2023-08-06T09:18:11;21.75;77.66
72114;SHT31;59989;46.220;19.888;2023-08-06T09:21:14;21.92;78.83
72114;SHT31;59989;46.220;19.888;2023-08-06T09:24:18;21.97;77.29
72114;SHT31;59989;46.220;19.888;2023-08-06T09:27:22;22.00;77.31
72114;SHT31;59989;46.220;19.888;2023-08-06T09:30:38;21.97;77.66
72114;SHT31;59989;46.220;19.888;2023-08-06T09:33:40;21.90;76.89
72114;SHT31;59989;46.220;19.888;2023-08-06T09:36:46;21.67;76.21
72114;SHT31;59989;46.220;19.888;2023-08-06T09:39:48;21.58;76.04
72114;SHT31;59989;46.220;19.888;2023-08-06T09:42:51;22.58;73.77
72114;SHT31;59989;46.220;19.888;2023-08-06T09:45:54;23.84;73.51
72114;SHT31;59989;46.220;19.888;2023-08-06T09:48:57;23.60;71.40
72114;SHT31;59989;46.220;19.888;2023-08-06T09:52:00;23.20;69.88
72114;SHT31;59989;46.220;19.888;2023-08-06T09:55:03;23.78;68.38
72114;SHT31;59989;46.220;19.888;2023-08-06T09:58:06;24.30;68.92
72114;SHT31;59989;46.220;19.888;2023-08-06T10:01:11;24.19;70.22
72114;SHT31;59989;46.220;19.888;2023-08-06T10:04:14;23.54;71.44
72114;SHT31;59989;46.220;19.888;2023-08-06T10:07:27;22.64;71.35
72114;SHT31;59989;46.220;19.888;2023-08-06T10:10:31;22.52;72.61
72114;SHT31;59989;46.220;19.888;2023-08-06T10:13:34;22.81;72.27
72114;SHT31;59989;46.220;19.888;2023-08-06T10:16:39;23.24;71.93
72114;SHT31;59989;46.220;19.888;2023-08-06T10:19:42;22.72;71.20
72114;SHT31;59989;46.220;19.888;2023-08-06T10:22:45;22.89;72.88
72114;SHT31;59989;46.220;19.888;2023-08-06T10:25:53;23.19;70.99
72114;SHT31;59989;46.220;19.888;2023-08-06T10:28:58;23.53;70.30
72114;SHT31;59989;46.220;19.888;2023-08-06T10:32:01;23.63;68.08
72114;SHT31;59989;46.220;19.888;2023-08-06T10:35:04;24.72;67.96
72114;SHT31;59989;46.220;19.888;2023-08-06T10:38:11;24.35;67.38
72114;SHT31;59989;46.220;19.888;2023-08-06T10:41:35;24.11;67.86
72114;SHT31;59989;46.220;19.888;2023-08-06T10:48:45;23.60;70.51
72114;SHT31;59989;46.220;19.888;2023-08-06T10:51:48;22.88;71.31
72114;SHT31;59989;46.220;19.888;2023-08-06T10:54:51;22.17;72.33
72114;SHT31;59989;46.220;19.888;2023-08-06T10:57:56;21.61;74.34
72114;SHT31;59989;46.220;19.888;2023-08-06T11:01:00;21.15;74.74
72114;SHT31;59989;46.220;19.888;2023-08-06T11:04:03;21.04;75.69
72114;SHT31;59989;46.220;19.888;2023-08-06T11:07:07;20.81;74.65
72114;SHT31;59989;46.220;19.888;2023-08-06T11:10:12;20.97;74.92
72114;SHT31;59989;46.220;19.888;2023-08-06T11:13:17;21.34;74.68
72114;SHT31;59989;46.220;19.888;2023-08-06T11:16:22;21.61;72.29
72114;SHT31;59989;46.220;19.888;2023-08-06T11:19:26;21.58;73.82
72114;SHT31;59989;46.220;19.888;2023-08-06T11:22:29;21.89;74.03
72114;SHT31;59989;46.220;19.888;2023-08-06T11:25:36;22.07;70.30
72114;SHT31;59989;46.220;19.888;2023-08-06T11:28:40;22.37;71.10
72114;SHT31;59989;46.220;19.888;2023-08-06T11:31:42;22.87;70.84
72114;SHT31;59989;46.220;19.888;2023-08-06T11:34:45;24.67;66.70
72114;SHT31;59989;46.220;19.888;2023-08-06T11:37:47;23.39;67.87
72114;SHT31;59989;46.220;19.888;2023-08-06T11:40:51;22.73;70.31
72114;SHT31;59989;46.220;19.888;2023-08-06T11:43:53;21.85;69.34
72114;SHT31;59989;46.220;19.888;2023-08-06T11:46:56;21.71;71.44
72114;SHT31;59989;46.220;19.888;2023-08-06T11:49:59;21.49;71.68
72114;SHT31;59989;46.220;19.888;2023-08-06T11:53:01;21.30;72.10
72114;SHT31;59989;46.220;19.888;2023-08-06T11:56:04;21.27;73.57
72114;SHT31;59989;46.220;19.888;2023-08-06T11:59:06;21.45;73.56
72114;SHT31;59989;46.220;19.888;2023-08-06T12:02:10;21.39;71.91
72114;SHT31;59989;46.220;19.888;2023-08-06T12:05:17;21.23;72.17
72114;SHT31;59989;46.220;19.888;2023-08-06T12:08:20;21.14;73.12
72114;SHT31;59989;46.220;19.888;2023-08-06T12:11:23;21.27;73.15
72114;SHT31;59989;46.220;19.888;2023-08-06T12:14:26;21.30;73.14
72114;SHT31;59989;46.220;19.888;2023-08-06T12:17:28;21.51;71.65
72114;SHT31;59989;46.220;19.888;2023-08-06T12:20:31;22.02;71.86
72114;SHT31;59989;46.220;19.888;2023-08-06T12:23:34;22.24;70.95
72114;SHT31;59989;46.220;19.888;2023-08-06T12:26:37;21.94;69.57
72114;SHT31;59989;46.220;19.888;2023-08-06T12:29:44;21.73;67.96
72114;SHT31;59989;46.220;19.888;2023-08-06T12:32:47;21.76;68.62
72114;SHT31;59989;46.220;19.888;2023-08-06T12:35:49;21.96;68.44
72114;SHT31;59989;46.220;19.888;2023-08-06T12:38:52;22.09;69.01
72114;SHT31;59989;46.220;19.888;2023-08-06T12:41:55;22.10;68.75
72114;SHT31;59989;46.220;19.888;2023-08-06T12:45:05;22.48;68.44
72114;SHT31;59989;46.220;19.888;2023-08-06T12:48:08;22.51;67.27
72114;SHT31;59989;46.220;19.888;2023-08-06T12:51:11;22.65;67.73
72114;SHT31;59989;46.220;19.888;2023-08-06T12:54:13;22.69;66.32
72114;SHT31;59989;46.220;19.888;2023-08-06T12:57:16;22.36;66.59
72114;SHT31;59989;46.220;19.888;2023-08-06T13:00:19;22.72;67.59
72114;SHT31;59989;46.220;19.888;2023-08-06T13:03:22;22.82;64.46
72114;SHT31;59989;46.220;19.888;2023-08-06T13:06:25;23.19;64.15
72114;SHT31;59989;46.220;19.888;2023-08-06T13:09:27;23.73;63.42
72114;SHT31;59989;46.220;19.888;2023-08-06T13:12:33;26.95;55.94
72114;SHT31;59989;46.220;19.888;2023-08-06T13:15:36;25.34;57.70
72114;SHT31;59989;46.220;19.888;2023-08-06T13:18:38;23.45;62.98
72114;SHT31;59989;46.220;19.888;2023-08-06T13:24:43;22.50;67.21
72114;SHT31;59989;46.220;19.888;2023-08-06T13:27:46;21.79;65.59
72114;SHT31;59989;46.220;19.888;2023-08-06T13:30:51;21.55;67.35
72114;SHT31;59989;46.220;19.888;2023-08-06T13:33:55;21.39;69.34
72114;SHT31;59989;46.220;19.888;2023-08-06T13:37:02;21.07;70.29
72114;SHT31;59989;46.220;19.888;2023-08-06T13:40:05;20.84;70.74
72114;SHT31;59989;46.220;19.888;2023-08-06T13:43:08;20.80;72.24
72114;SHT31;59989;46.220;19.888;2023-08-06T13:46:12;20.72;71.01
72114;SHT31;59989;46.220;19.888;2023-08-06T13:49:18;20.70;70.33
72114;SHT31;59989;46.220;19.888;2023-08-06T13:52:21;20.93;69.65
72114;SHT31;59989;46.220;19.888;2023-08-06T13:55:24;21.21;69.78
72114;SHT31;59989;46.220;19.888;2023-08-06T13:58:26;21.17;70.20
72114;SHT31;59989;46.220;19.888;2023-08-06T14:01:29;21.10;70.42
72114;SHT31;59989;46.220;19.888;2023-08-06T14:04:52;20.93;69.18
72114;SHT31;59989;46.220;19.888;2023-08-06T14:07:55;20.81;68.02
72114;SHT31;59989;46.220;19.888;2023-08-06T14:10:57;20.94;68.94
72114;SHT31;59989;46.220;19.888;2023-08-06T14:14:00;20.96;67.93
72114;SHT31;59989;46.220;19.888;2023-08-06T14:17:05;20.94;68.34
72114;SHT31;59989;46.220;19.888;2023-08-06T14:20:08;20.94;67.07
72114;SHT31;59989;46.220;19.888;2023-08-06T14:23:14;21.27;67.08
72114;SHT31;59989;46.220;19.888;2023-08-06T14:26:16;21.69;67.25
72114;SHT31;59989;46.220;19.888;2023-08-06T14:29:19;22.00;66.71
72114;SHT31;59989;46.220;19.888;2023-08-06T14:32:22;22.12;65.75
72114;SHT31;59989;46.220;19.888;2023-08-06T14:35:24;25.70;57.56
72114;SHT31;59989;46.220;19.888;2023-08-06T14:38:27;25.72;56.59
72114;SHT31;59989;46.220;19.888;2023-08-06T14:41:29;23.36;61.17
72114;SHT31;59989;46.220;19.888;2023-08-06T14:44:32;22.92;64.28
72114;SHT31;59989;46.220;19.888;2023-08-06T14:47:34;22.37;65.53
72114;SHT31;59989;46.220;19.888;2023-08-06T14:50:37;21.83;67.70
72114;SHT31;59989;46.220;19.888;2023-08-06T14:53:41;21.51;69.26
72114;SHT31;59989;46.220;19.888;2023-08-06T14:56:44;21.00;70.71
72114;SHT31;59989;46.220;19.888;2023-08-06T14:59:46;20.86;73.03
72114;SHT31;59989;46.220;19.888;2023-08-06T15:02:49;20.49;74.77
72114;SHT31;59989;46.220;19.888;2023-08-06T15:05:52;20.32;75.85
72114;SHT31;59989;46.220;19.888;2023-08-06T15:08:54;20.19;76.00
72114;SHT31;59989;46.220;19.888;2023-08-06T15:12:00;20.22;75.01
72114;SHT31;59989;46.220;19.888;2023-08-06T15:15:03;20.14;74.41
72114;SHT31;59989;46.220;19.888;2023-08-06T15:18:05;20.01;74.35
72114;SHT31;59989;46.220;19.888;2023-08-06T15:21:08;20.09;74.57
72114;SHT31;59989;46.220;19.888;2023-08-06T15:24:10;20.18;74.76
72114;SHT31;59989;46.220;19.888;2023-08-06T15:27:13;20.28;74.41
72114;SHT31;59989;46.220;19.888;2023-08-06T15:30:15;20.19;73.92
72114;SHT31;59989;46.220;19.888;2023-08-06T15:33:18;20.46;73.95
72114;SHT31;59989;46.220;19.888;2023-08-06T15:36:21;20.72;71.77
72114;SHT31;59989;46.220;19.888;2023-08-06T15:39:24;21.72;69.44
72114;SHT31;59989;46.220;19.888;2023-08-06T15:42:26;22.81;65.82
72114;SHT31;59989;46.220;19.888;2023-08-06T15:45:29;24.09;61.48
72114;SHT31;59989;46.220;19.888;2023-08-06T15:48:32;23.50;63.27
72114;SHT31;59989;46.220;19.888;2023-08-06T15:51:35;22.50;66.00
72114;SHT31;59989;46.220;19.888;2023-08-06T15:54:38;21.73;68.66
72114;SHT31;59989;46.220;19.888;2023-08-06T15:57:41;21.20;70.10
72114;SHT31;59989;46.220;19.888;2023-08-06T16:00:43;20.97;71.23
72114;SHT31;59989;46.220;19.888;2023-08-06T16:03:46;20.91;73.22
72114;SHT31;59989;46.220;19.888;2023-08-06T16:06:49;20.77;75.38
72114;SHT31;59989;46.220;19.888;2023-08-06T16:09:53;20.65;75.54
72114;SHT31;59989;46.220;19.888;2023-08-06T16:12:55;20.22;76.98
72114;SHT31;59989;46.220;19.888;2023-08-06T16:15:58;20.26;76.85
72114;SHT31;59989;46.220;19.888;2023-08-06T16:19:02;20.11;77.52
72114;SHT31;59989;46.220;19.888;2023-08-06T16:22:04;20.25;77.66
72114;SHT31;59989;46.220;19.888;2023-08-06T16:25:08;20.14;76.44
72114;SHT31;59989;46.220;19.888;2023-08-06T16:28:14;20.05;77.07
72114;SHT31;59989;46.220;19.888;2023-08-06T16:31:18;19.85;77.66
72114;SHT31;59989;46.220;19.888;2023-08-06T16:34:21;19.66;77.95
72114;SHT31;59989;46.220;19.888;2023-08-06T16:37:23;19.49;77.03
72114;SHT31;59989;46.220;19.888;2023-08-06T16:40:26;19.39;77.29
72114;SHT31;59989;46.220;19.888;2023-08-06T16:43:28;19.39;78.00
72114;SHT31;59989;46.220;19.888;2023-08-06T16:46:31;19.40;77.53
72114;SHT31;59989;46.220;19.888;2023-08-06T16:49:33;19.39;77.96
72114;SHT31;59989;46.220;19.888;2023-08-06T16:52:36;19.40;77.82
72114;SHT31;59989;46.220;19.888;2023-08-06T16:55:39;19.42;77.23
72114;SHT31;59989;46.220;19.888;2023-08-06T16:58:42;19.39;77.47
72114;SHT31;59989;46.220;19.888;2023-08-06T17:01:44;19.33;77.13
72114;SHT31;59989;46.220;19.888;2023-08-06T17:04:47;19.29;77.22
72114;SHT31;59989;46.220;19.888;2023-08-06T17:07:50;19.24;76.66
72114;SHT31;59989;46.220;19.888;2023-08-06T17:10:54;19.23;75.37
72114;SHT31;59989;46.220;19.888;2023-08-06T17:13:56;19.16;74.62
72114;SHT31;59989;46.220;19.888;2023-08-06T17:16:59;19.11;74.01
72114;SHT31;59989;46.220;19.888;2023-08-06T17:20:01;19.09;74.94
72114;SHT31;59989;46.220;19.888;2023-08-06T17:23:04;19.01;74.88
72114;SHT31;59989;46.220;19.888;2023-08-06T17:26:07;18.95;74.76
72114;SHT31;59989;46.220;19.888;2023-08-06T17:29:09;18.88;74.29
72114;SHT31;59989;46.220;19.888;2023-08-06T17:32:11;18.85;74.64
72114;SHT31;59989;46.220;19.888;2023-08-06T17:35:15;18.81;75.10
72114;SHT31;59989;46.220;19.888;2023-08-06T17:38:17;18.75;74.79
72114;SHT31;59989;46.220;19.888;2023-08-06T17:41:20;18.67;75.43
72114;SHT31;59989;46.220;19.888;2023-08-06T17:44:22;18.61;75.25
72114;SHT31;59989;46.220;19.888;2023-08-06T17:47:25;18.58;75.54
72114;SHT31;59989;46.220;19.888;2023-08-06T17:50:38;18.54;75.63
72114;SHT31;59989;46.220;19.888;2023-08-06T17:53:41;18.48;76.12
72114;SHT31;59989;46.220;19.888;2023-08-06T17:56:43;18.47;75.28
72114;SHT31;59989;46.220;19.888;2023-08-06T17:59:46;18.45;76.58
72114;SHT31;59989;46.220;19.888;2023-08-06T18:02:48;18.38;76.80
72114;SHT31;59989;46.220;19.888;2023-08-06T18:05:57;18.33;77.31
72114;SHT31;59989;46.220;19.888;2023-08-06T18:09:00;18.27;77.48
72114;SHT31;59989;46.220;19.888;2023-08-06T18:12:03;18.26;77.83
72114;SHT31;59989;46.220;19.888;2023-08-06T18:15:06;18.18;78.55
72114;SHT31;59989;46.220;19.888;2023-08-06T18:18:09;18.07;78.81
72114;SHT31;59989;46.220;19.888;2023-08-06T18:21:14;17.99;79.00
72114;SHT31;59989;46.220;19.888;2023-08-06T18:24:16;17.95;80.08
72114;SHT31;59989;46.220;19.888;2023-08-06T18:27:20;17.83;79.80
72114;SHT31;59989;46.220;19.888;2023-08-06T18:30:22;17.79;80.86
72114;SHT31;59989;46.220;19.888;2023-08-06T18:33:25;17.74;81.44
72114;SHT31;59989;46.220;19.888;2023-08-06T18:36:27;17.68;82.04
72114;SHT31;59989;46.220;19.888;2023-08-06T18:39:31;17.58;80.86
72114;SHT31;59989;46.220;19.888;2023-08-06T18:42:34;17.47;81.30
72114;SHT31;59989;46.220;19.888;2023-08-06T18:45:36;17.42;81.71
72114;SHT31;59989;46.220;19.888;2023-08-06T18:48:41;17.39;82.31
72114;SHT31;59989;46.220;19.888;2023-08-06T18:51:44;17.35;82.39
72114;SHT31;59989;46.220;19.888;2023-08-06T18:54:46;17.35;82.67
72114;SHT31;59989;46.220;19.888;2023-08-06T18:57:49;17.28;83.19
72114;SHT31;59989;46.220;19.888;2023-08-06T19:00:57;17.23;83.60
72114;SHT31;59989;46.220;19.888;2023-08-06T19:04:00;17.14;84.11
72114;SHT31;59989;46.220;19.888;2023-08-06T19:07:03;17.11;84.77
72114;SHT31;59989;46.220;19.888;2023-08-06T19:10:06;17.07;84.80
72114;SHT31;59989;46.220;19.888;2023-08-06T19:13:10;17.04;85.37